< Typhoon 202120 2021 Season Typhoon 202122 >
Typhoon 202121 (NYATOH)
General InformationTrack Information on Google MapsDetailed Wind InformationForecast History on Google MapsAccess Analytics MapList of All Images || NewsDisaster Info.WeblogTrackbackTyphoon FrontTwiphoonTyphoon Now!Typhoon ImaginationJMA Disaster Info. XMLResourceGoogle EarthGE AnimationAtom FeedGeoJSON
Detalied Best Track (Time Zone = UTC)
Year Month Day Hour Lat. Long. Pressure (hPa) Wind (kt) Class Image Chart
2021 11 28 18 11.7 144.0 1004 0 2 Image Chart
2021 11 29 00 11.8 142.8 1006 0 2 Image Chart
2021 11 29 06 12.0 141.8 1004 0 2 Image Chart
2021 11 29 12 12.2 141.0 1006 0 2 Image Chart
2021 11 29 18 12.3 140.0 1002 0 2 Image Chart
2021 11 30 00 12.5 139.0 1000 35 3 Image Chart
2021 11 30 06 12.9 138.1 998 35 3 Image Chart
2021 11 30 12 13.2 137.3 996 40 3 Image Chart
2021 11 30 18 13.5 136.5 992 45 3 Image Chart
2021 12 1 00 13.8 136.2 990 50 4 Image Chart
2021 12 1 06 14.2 135.7 985 55 4 Image Chart
2021 12 1 12 15.0 135.6 975 65 5 Image Chart
2021 12 1 18 15.8 135.5 970 70 5 Image Chart
2021 12 2 00 16.5 135.5 970 70 5 Image Chart
2021 12 2 06 17.3 135.8 955 80 5 Image Chart
2021 12 2 12 18.3 136.7 950 85 5 Image Chart
2021 12 2 18 19.5 137.5 925 100 5 Image Chart
2021 12 3 00 21.0 138.7 925 100 5 Image Chart
2021 12 3 06 22.6 140.5 935 95 5 Image Chart
2021 12 3 12 24.2 142.5 955 80 5 Image Chart
2021 12 3 18 26.2 144.6 980 60 4 Image Chart
2021 12 4 00 28.4 146.5 1000 0 6 Image Chart
2021 12 4 06 29.0 148.1 1006 0 6 Image Chart
Japan Meteorological Agency Best Track Data | Correction Date : 2022-02-04
< Typhoon 202120 2021 Season Typhoon 202122 >

Help